createdAt,value
2023-03-23T15:58:20.725Z,20.35
2023-03-23T16:00:48.420Z,14.50
2023-03-23T16:03:24.323Z,11.68
2023-03-23T16:05:51.351Z,10.82
2023-03-23T16:08:17.956Z,10.75
2023-03-23T16:10:44.574Z,11.27
2023-03-23T16:13:11.507Z,12.38
2023-03-23T16:15:38.008Z,11.45
2023-03-23T16:18:04.458Z,11.88
2023-03-23T16:20:33.020Z,10.95
2023-03-23T16:23:00.292Z,10.65
2023-03-23T16:25:27.085Z,10.18
2023-03-23T16:27:54.450Z,11.35
2023-03-23T16:30:24.727Z,11.70
2023-03-23T16:32:51.800Z,9.85
2023-03-23T16:35:18.910Z,10.55
2023-03-23T16:37:47.110Z,10.98
2023-03-23T16:40:15.069Z,10.75
2023-03-23T16:42:44.438Z,10.85
2023-03-23T16:45:12.287Z,10.95
2023-03-23T16:47:39.769Z,10.80
2023-03-23T16:50:08.140Z,11.38
2023-03-23T16:52:34.608Z,11.20
2023-03-23T16:55:14.504Z,11.35
2023-03-23T16:57:42.087Z,10.93
2023-03-23T17:00:15.257Z,10.75
2023-03-23T17:02:43.617Z,11.15
2023-03-23T17:05:14.127Z,11.52
2023-03-23T17:07:41.795Z,11.27
2023-03-23T17:10:10.045Z,12.20
2023-03-23T17:12:36.831Z,11.27
2023-03-23T17:15:04.250Z,11.88
2023-03-23T17:17:30.957Z,11.30
2023-03-23T17:19:57.434Z,11.20
2023-03-23T17:22:24.723Z,9.10
2023-03-23T17:24:51.896Z,10.25
2023-03-23T17:27:20.482Z,12.07
2023-03-23T17:29:46.934Z,11.98
2023-03-23T17:32:13.943Z,10.98
2023-03-23T17:34:40.858Z,11.05
2023-03-23T17:37:08.065Z,11.48
2023-03-23T17:39:42.317Z,12.07
2023-03-23T17:42:10.322Z,12.32
2023-03-23T17:44:40.492Z,13.10
2023-03-23T17:47:06.932Z,13.13
2023-03-23T17:49:33.366Z,14.40
2023-03-23T17:52:00.286Z,14.35
2023-03-23T17:54:29.508Z,13.07
2023-03-23T17:56:58.402Z,13.60
2023-03-23T17:59:25.946Z,13.65
2023-03-23T18:01:53.632Z,13.13
2023-03-23T18:04:20.214Z,13.88
2023-03-23T18:06:50.650Z,13.32
2023-03-23T18:09:17.014Z,12.93
2023-03-23T18:11:43.796Z,12.48
2023-03-23T18:14:10.279Z,12.63
2023-03-23T18:16:37.041Z,12.02
2023-03-23T18:19:03.743Z,13.07
2023-03-23T18:21:30.245Z,12.45
2023-03-23T18:23:59.916Z,12.82
2023-03-23T18:26:27.721Z,12.95
2023-03-23T18:28:54.993Z,12.00
2023-03-23T18:31:22.121Z,11.77
2023-03-23T18:33:51.030Z,12.27
2023-03-23T18:36:20.553Z,13.23
2023-03-23T18:38:47.714Z,11.98
2023-03-23T18:41:15.508Z,13.07
2023-03-23T18:43:42.065Z,12.65
2023-03-23T18:46:08.754Z,12.25
2023-03-23T18:48:36.141Z,12.43
2023-03-23T18:51:03.104Z,11.77
2023-03-23T18:53:29.926Z,12.57
2023-03-23T18:56:10.083Z,12.75
2023-03-23T18:58:37.202Z,12.07
2023-03-23T19:01:09.557Z,10.85
2023-03-23T19:03:37.788Z,10.95
2023-03-23T19:06:04.739Z,11.23
2023-03-23T19:08:31.964Z,10.82
2023-03-23T19:11:01.657Z,10.98
2023-03-23T19:13:29.865Z,10.95
2023-03-23T19:15:56.678Z,11.00
2023-03-23T19:18:23.317Z,11.73
2023-03-23T19:21:13.670Z,12.00
2023-03-23T19:23:41.319Z,11.43
2023-03-23T19:26:07.803Z,10.60
2023-03-23T19:31:07.602Z,10.60
2023-03-23T19:33:40.320Z,11.18
2023-03-23T19:36:12.261Z,11.32
2023-03-23T19:38:39.969Z,10.00
2023-03-23T19:41:06.831Z,9.98
2023-03-23T19:43:33.873Z,10.40
2023-03-23T19:46:00.727Z,11.18
2023-03-23T19:48:28.075Z,11.10
2023-03-23T19:50:57.745Z,11.40
2023-03-23T19:53:26.498Z,10.23
2023-03-23T19:55:53.228Z,10.18
2023-03-23T19:58:20.481Z,10.45
2023-03-23T20:00:48.581Z,11.60
2023-03-23T20:03:15.952Z,11.13
2023-03-23T20:05:42.860Z,11.00
2023-03-23T20:08:09.951Z,10.95
2023-03-23T20:10:37.329Z,11.55
2023-03-23T20:13:05.246Z,11.50
2023-03-23T20:15:33.062Z,10.88
2023-03-23T20:18:00.893Z,9.93
2023-03-23T20:20:28.114Z,11.20
2023-03-23T20:22:56.545Z,10.68
2023-03-23T20:25:28.176Z,10.50
2023-03-23T20:27:57.863Z,10.52
2023-03-23T20:30:24.539Z,10.80
2023-03-23T20:32:53.526Z,10.23
2023-03-23T20:35:22.568Z,10.80
2023-03-23T20:37:50.590Z,10.98
2023-03-23T20:40:17.341Z,11.38
2023-03-23T20:42:44.066Z,9.95
2023-03-23T20:45:14.938Z,11.18
2023-03-23T20:47:44.199Z,10.52
2023-03-23T20:50:12.359Z,10.80
2023-03-23T20:52:40.597Z,10.75
2023-03-23T20:55:07.556Z,12.23
2023-03-23T20:57:34.518Z,9.45
2023-03-23T21:00:02.407Z,10.35
2023-03-23T21:02:29.949Z,10.18
2023-03-23T21:04:58.146Z,9.93
2023-03-23T21:07:27.300Z,10.65
2023-03-23T21:09:53.730Z,10.35
2023-03-23T21:12:20.121Z,10.32
2023-03-23T21:14:46.592Z,10.48
2023-03-23T21:17:13.071Z,10.55
2023-03-23T21:19:39.926Z,10.40
2023-03-23T21:22:06.932Z,10.82
2023-03-23T21:24:37.412Z,10.50
2023-03-23T21:27:04.291Z,10.32
2023-03-23T21:29:31.113Z,10.60
2023-03-23T21:34:27.320Z,10.45
2023-03-23T21:36:53.707Z,10.48
2023-03-23T21:39:21.113Z,10.60
2023-03-23T21:41:49.616Z,12.45
2023-03-23T21:44:18.118Z,12.43
2023-03-23T21:46:44.521Z,13.43
2023-03-23T21:49:14.206Z,12.32
2023-03-23T21:51:41.806Z,14.18
2023-03-23T21:54:09.175Z,15.40
2023-03-23T21:56:35.801Z,16.30
2023-03-23T21:59:03.555Z,18.88
2023-03-23T22:01:30.307Z,22.70
2023-03-23T22:03:57.944Z,25.63
2023-03-23T22:06:26.807Z,25.52
2023-03-23T22:08:54.039Z,29.60
2023-03-23T22:11:26.508Z,34.15
2023-03-23T22:13:54.711Z,32.88
2023-03-23T22:16:22.480Z,32.92
2023-03-23T22:18:51.151Z,31.33
2023-03-23T22:21:19.736Z,29.50
2023-03-23T22:23:46.620Z,31.17
2023-03-23T22:26:14.604Z,34.30
2023-03-23T22:28:41.961Z,37.88
2023-03-23T22:31:16.969Z,38.13
2023-03-23T22:33:43.480Z,43.08
2023-03-23T22:36:10.664Z,51.95
2023-03-23T22:38:40.292Z,52.55
2023-03-23T22:41:08.053Z,59.78
2023-03-23T22:43:36.061Z,56.05
2023-03-23T22:46:03.239Z,63.63
2023-03-23T22:48:29.894Z,61.22
2023-03-23T22:50:56.331Z,60.92
2023-03-23T22:53:22.804Z,58.25
2023-03-23T22:55:52.844Z,56.70
2023-03-23T22:58:19.222Z,60.95
2023-03-23T23:00:48.896Z,59.50
2023-03-23T23:03:16.546Z,60.40
2023-03-23T23:05:45.822Z,65.47
2023-03-23T23:08:14.134Z,59.97
2023-03-23T23:10:44.618Z,62.78
2023-03-23T23:13:12.692Z,58.50
2023-03-23T23:15:43.549Z,66.07
2023-03-23T23:18:10.262Z,60.10
2023-03-23T23:20:37.537Z,69.25
2023-03-23T23:23:04.691Z,71.32
2023-03-23T23:25:32.338Z,70.28
2023-03-23T23:28:00.430Z,71.30
2023-03-23T23:30:27.649Z,73.10
2023-03-23T23:32:55.006Z,78.35
2023-03-23T23:35:22.166Z,78.30
2023-03-23T23:37:49.040Z,77.50
2023-03-23T23:40:17.248Z,81.13
2023-03-23T23:42:46.151Z,78.97
2023-03-23T23:45:13.958Z,64.05
2023-03-23T23:47:40.858Z,83.50
2023-03-23T23:50:09.363Z,76.13
2023-03-23T23:52:37.293Z,75.82
2023-03-23T23:55:06.590Z,69.97
2023-03-23T23:57:33.590Z,71.25
